< < Back
Terminal Aerodrome Forecast


Current Version              Previous Versions:   1  2  3  4  5  6  7  8  9  

Terminal Aerodrome Forecast

679
FTUS42 KTAE 041120
TAFDHN
TAF
KDHN 041120Z 0412/0512 22006KT P6SM FEW250
      TEMPO 0412/0413 2SM BR BKN004 OVC012
     FM041300 27007KT P6SM SCT025 BKN250
     FM041700 VRB15G25KT 2SM TSRA SCT010 BKN030CB
     FM050100 24005KT P6SM BKN250
      AMD NOT SKED=

Latest METAR

662
SAUS70 KWBC 051200 RRH
MTRDHN
METAR KDHN 051153Z AUTO 16003KT 10SM FEW047 SCT095 BKN120 22/21 RMK AO2
RAB25E52 SLPNO P0000 60000 70044 T02220211 10222 20206 $


USA.gov is the U.S. government's official web portal to all federal, state and local government web resources and services.